createdAt,value
2023-03-30T00:01:58.885Z,99.90
2023-03-30T00:04:28.250Z,99.90
2023-03-30T00:06:57.594Z,99.90
2023-03-30T00:09:33.469Z,99.90
2023-03-30T00:12:04.594Z,99.90
2023-03-30T00:14:38.433Z,99.90
2023-03-30T00:17:09.509Z,99.90
2023-03-30T00:19:38.881Z,99.90
2023-03-30T00:22:10.360Z,99.90
2023-03-30T00:24:40.975Z,99.90
2023-03-30T00:27:10.156Z,99.90
2023-03-30T00:29:39.287Z,99.90
2023-03-30T00:32:08.654Z,99.90
2023-03-30T00:34:38.210Z,99.90
2023-03-30T00:37:07.336Z,99.90
2023-03-30T00:39:36.736Z,99.90
2023-03-30T00:42:06.282Z,99.90
2023-03-30T00:45:12.692Z,99.90
2023-03-30T00:48:00.464Z,99.90
2023-03-30T00:51:11.826Z,99.90
2023-03-30T00:53:51.530Z,99.90
2023-03-30T00:56:28.148Z,99.90
2023-03-30T00:58:58.310Z,99.90
2023-03-30T01:01:29.903Z,99.90
2023-03-30T01:04:10.990Z,99.90
2023-03-30T01:06:44.316Z,99.90
2023-03-30T01:09:18.393Z,99.90
2023-03-30T01:11:48.256Z,99.90
2023-03-30T01:14:19.007Z,99.90
2023-03-30T01:17:23.154Z,99.90
2023-03-30T01:20:32.092Z,99.90
2023-03-30T01:23:54.979Z,99.90
2023-03-30T01:27:11.892Z,99.90
2023-03-30T01:30:02.619Z,99.90
2023-03-30T01:33:07.086Z,99.90
2023-03-30T01:36:43.380Z,99.90
2023-03-30T01:39:36.592Z,99.90
2023-03-30T01:42:29.083Z,99.90
2023-03-30T01:44:58.338Z,99.90
2023-03-30T01:47:42.173Z,99.90
2023-03-30T01:50:21.384Z,99.90
2023-03-30T01:52:57.539Z,99.90
2023-03-30T01:55:39.434Z,99.90
2023-03-30T01:58:33.553Z,99.90
2023-03-30T02:01:05.885Z,99.90
2023-03-30T02:03:41.284Z,99.90
2023-03-30T02:06:25.493Z,99.90
2023-03-30T02:09:00.307Z,99.90
2023-03-30T02:11:33.061Z,99.90
2023-03-30T02:14:05.841Z,99.90
2023-03-30T02:16:53.478Z,99.90
2023-03-30T02:19:22.772Z,99.90
2023-03-30T02:21:52.457Z,99.90
2023-03-30T02:24:29.240Z,99.90
2023-03-30T02:27:01.765Z,99.90
2023-03-30T02:29:32.778Z,99.90
2023-03-30T02:32:03.159Z,99.90
2023-03-30T02:34:58.004Z,99.90
2023-03-30T02:37:33.653Z,99.90
2023-03-30T02:40:33.601Z,99.90
2023-03-30T02:43:46.037Z,99.90
2023-03-30T02:46:47.409Z,99.90
2023-03-30T02:49:57.571Z,99.90
2023-03-30T02:52:57.901Z,99.90
2023-03-30T02:56:08.564Z,99.90
2023-03-30T02:58:53.309Z,99.90
2023-03-30T03:01:39.464Z,99.90
2023-03-30T03:04:11.416Z,99.90
2023-03-30T03:06:41.699Z,99.90
2023-03-30T03:09:11.306Z,99.90
2023-03-30T03:11:40.463Z,99.90
2023-03-30T03:14:10.597Z,99.90
2023-03-30T03:16:40.391Z,99.90
2023-03-30T03:19:10.671Z,99.90
2023-03-30T03:21:40.283Z,99.90
2023-03-30T03:24:09.759Z,99.90
2023-03-30T03:26:39.026Z,99.90
2023-03-30T03:29:08.898Z,99.90
2023-03-30T03:31:38.332Z,99.90
2023-03-30T03:34:08.148Z,99.70
2023-03-30T03:36:37.444Z,99.40
2023-03-30T03:39:06.639Z,99.10
2023-03-30T03:41:36.067Z,98.80
2023-03-30T03:44:05.216Z,98.50
2023-03-30T03:46:34.448Z,98.20
2023-03-30T03:49:03.649Z,98.30
2023-03-30T03:51:34.066Z,98.40
2023-03-30T03:54:03.631Z,98.00
2023-03-30T03:56:33.166Z,98.20
2023-03-30T03:59:04.436Z,98.40
2023-03-30T04:01:34.072Z,98.10
2023-03-30T04:04:03.298Z,97.80
2023-03-30T04:06:32.479Z,97.80
2023-03-30T04:09:02.900Z,97.40
2023-03-30T04:11:32.059Z,97.10
2023-03-30T04:14:01.275Z,96.80
2023-03-30T04:16:30.723Z,96.80
2023-03-30T04:19:00.956Z,96.10
2023-03-30T04:21:30.672Z,96.00
2023-03-30T04:23:59.852Z,95.60
2023-03-30T04:26:29.535Z,95.10
2023-03-30T04:28:58.716Z,94.90
2023-03-30T04:31:35.647Z,94.70
2023-03-30T04:34:05.929Z,95.10
2023-03-30T04:36:36.789Z,95.00
2023-03-30T04:39:08.904Z,94.70
2023-03-30T04:41:38.902Z,94.30
2023-03-30T04:44:10.856Z,93.20
2023-03-30T04:46:40.289Z,92.80
2023-03-30T04:49:09.478Z,92.10
2023-03-30T04:51:40.650Z,91.40
2023-03-30T04:54:09.921Z,91.90
2023-03-30T04:56:39.052Z,91.60
2023-03-30T04:59:08.253Z,92.00
2023-03-30T05:01:37.592Z,91.60
2023-03-30T05:04:06.993Z,91.80
2023-03-30T05:06:36.622Z,91.90
2023-03-30T05:09:05.925Z,91.00
2023-03-30T05:11:35.158Z,90.70
2023-03-30T05:14:04.376Z,90.50
2023-03-30T05:16:33.575Z,90.00
2023-03-30T05:19:02.807Z,89.40
2023-03-30T05:21:35.038Z,89.10
2023-03-30T05:24:04.236Z,88.40
2023-03-30T05:26:36.327Z,88.60
2023-03-30T05:29:05.564Z,88.10
2023-03-30T05:31:34.765Z,89.50
2023-03-30T05:34:04.314Z,88.70
2023-03-30T05:36:33.453Z,88.60
2023-03-30T05:39:05.926Z,87.20
2023-03-30T05:41:35.266Z,86.00
2023-03-30T05:44:05.815Z,85.60
2023-03-30T05:46:35.299Z,85.40
2023-03-30T05:49:04.470Z,85.70
2023-03-30T05:51:33.704Z,86.00
2023-03-30T05:54:03.222Z,85.00
2023-03-30T05:56:32.458Z,84.10
2023-03-30T05:59:01.686Z,83.60
2023-03-30T06:01:30.840Z,83.20
2023-03-30T06:04:00.394Z,83.80
2023-03-30T06:06:29.869Z,83.30
2023-03-30T06:08:59.153Z,82.80
2023-03-30T06:11:29.241Z,82.40
2023-03-30T06:13:58.817Z,81.80
2023-03-30T06:16:29.950Z,81.70
2023-03-30T06:18:59.144Z,79.90
2023-03-30T06:21:28.350Z,79.90
2023-03-30T06:23:57.760Z,79.50
2023-03-30T06:26:27.016Z,79.10
2023-03-30T06:28:56.249Z,78.80
2023-03-30T06:31:26.322Z,78.80
2023-03-30T06:33:56.038Z,78.00
2023-03-30T06:36:45.043Z,78.10
2023-03-30T06:39:15.862Z,78.70
2023-03-30T06:41:45.142Z,78.40
2023-03-30T06:44:15.756Z,79.10
2023-03-30T06:46:45.307Z,79.10
2023-03-30T06:49:15.042Z,80.60
2023-03-30T06:51:44.159Z,78.90
2023-03-30T06:54:13.365Z,78.10
2023-03-30T06:56:42.924Z,78.40
2023-03-30T06:59:12.148Z,80.70
2023-03-30T07:01:42.125Z,79.80
2023-03-30T07:04:11.828Z,80.30
2023-03-30T07:06:40.976Z,80.90
2023-03-30T07:09:10.240Z,80.50
2023-03-30T07:11:39.438Z,80.30
2023-03-30T07:14:11.046Z,79.90
2023-03-30T07:16:41.982Z,80.40
2023-03-30T07:19:11.382Z,81.00
2023-03-30T07:21:40.536Z,81.00
2023-03-30T07:24:09.771Z,81.00
2023-03-30T07:26:38.908Z,81.10
2023-03-30T07:29:08.647Z,79.50
2023-03-30T07:31:38.145Z,79.50
2023-03-30T07:34:08.741Z,80.10
2023-03-30T07:36:38.927Z,80.50
2023-03-30T07:39:09.182Z,80.40
2023-03-30T07:41:38.366Z,79.80
2023-03-30T07:44:07.589Z,79.30
2023-03-30T07:46:37.117Z,80.00
2023-03-30T07:49:06.355Z,80.30
2023-03-30T07:51:35.558Z,80.40
2023-03-30T07:54:05.550Z,80.10
2023-03-30T07:56:34.855Z,80.10
2023-03-30T07:59:05.393Z,80.30
2023-03-30T08:01:35.006Z,80.40
2023-03-30T08:04:04.373Z,79.10
2023-03-30T08:06:33.596Z,79.20
2023-03-30T08:09:03.622Z,79.40
2023-03-30T08:11:34.040Z,79.10
2023-03-30T08:14:04.851Z,79.60
2023-03-30T08:16:34.520Z,78.80
2023-03-30T08:19:03.873Z,78.30
2023-03-30T08:21:33.255Z,77.10
2023-03-30T08:24:03.039Z,78.20
2023-03-30T08:26:32.349Z,78.40
2023-03-30T08:29:01.472Z,78.10
2023-03-30T08:31:33.747Z,77.90
2023-03-30T08:34:05.314Z,77.50
2023-03-30T08:36:34.729Z,77.30
2023-03-30T08:39:04.624Z,77.60
2023-03-30T08:41:49.511Z,77.00
2023-03-30T08:44:40.933Z,77.60
2023-03-30T08:47:33.024Z,78.00
2023-03-30T08:50:15.076Z,77.40
2023-03-30T08:52:45.080Z,77.10
2023-03-30T08:55:35.137Z,76.70
2023-03-30T08:58:37.945Z,77.10
2023-03-30T09:01:16.542Z,76.70
2023-03-30T09:04:18.050Z,76.70
2023-03-30T09:07:08.803Z,76.90
2023-03-30T09:09:49.460Z,76.10
2023-03-30T09:12:45.721Z,75.90
2023-03-30T09:15:31.597Z,76.80
2023-03-30T09:18:35.883Z,76.60
2023-03-30T09:21:07.770Z,77.20
2023-03-30T09:23:37.177Z,77.00
2023-03-30T09:26:36.742Z,76.50
2023-03-30T09:29:30.515Z,77.20
2023-03-30T09:32:25.490Z,77.10
2023-03-30T09:35:13.855Z,77.00
2023-03-30T09:37:43.064Z,76.50
2023-03-30T09:41:28.840Z,76.80
2023-03-30T09:44:00.842Z,76.90
2023-03-30T09:46:30.528Z,76.30
2023-03-30T09:49:18.277Z,75.80
2023-03-30T09:52:04.943Z,76.70
2023-03-30T09:54:43.080Z,77.90
2023-03-30T09:57:29.605Z,76.10
2023-03-30T10:00:02.428Z,76.00
2023-03-30T10:02:33.604Z,75.60
2023-03-30T10:05:05.162Z,75.70
2023-03-30T10:07:44.132Z,75.00
2023-03-30T10:10:34.899Z,75.50
2023-03-30T10:13:20.681Z,75.00
2023-03-30T10:15:55.664Z,74.80
2023-03-30T10:18:39.120Z,73.60
2023-03-30T10:21:28.470Z,71.40
2023-03-30T10:24:30.412Z,72.00
2023-03-30T10:27:11.149Z,72.00
2023-03-30T10:29:45.980Z,72.40
2023-03-30T10:32:32.674Z,72.60
2023-03-30T10:35:09.780Z,72.60
2023-03-30T10:37:48.105Z,73.00
2023-03-30T10:40:59.651Z,73.30
2023-03-30T10:43:36.450Z,73.30
2023-03-30T10:46:20.085Z,74.00
2023-03-30T10:49:48.156Z,74.20
2023-03-30T10:52:56.276Z,74.50
2023-03-30T10:55:42.757Z,74.80
2023-03-30T10:58:50.250Z,75.80
2023-03-30T11:01:40.086Z,76.50
2023-03-30T11:04:39.979Z,77.30
2023-03-30T11:07:19.627Z,77.90
2023-03-30T11:10:00.003Z,78.50
2023-03-30T11:12:44.226Z,79.40
2023-03-30T11:15:34.449Z,80.10
2023-03-30T11:18:25.826Z,80.60
2023-03-30T11:21:14.238Z,80.90
2023-03-30T11:23:57.244Z,81.50
2023-03-30T11:26:45.029Z,81.90
2023-03-30T11:29:38.702Z,82.40
2023-03-30T11:32:28.862Z,82.70
2023-03-30T11:35:34.658Z,82.90
2023-03-30T11:38:22.314Z,83.50
2023-03-30T11:40:57.021Z,83.90
2023-03-30T11:43:32.471Z,84.10
2023-03-30T11:46:25.656Z,84.50
2023-03-30T11:49:34.542Z,84.60
2023-03-30T11:52:32.429Z,85.00
2023-03-30T11:55:30.015Z,84.90
2023-03-30T11:58:37.398Z,85.30
2023-03-30T12:01:29.560Z,85.30
2023-03-30T12:04:16.550Z,85.60
2023-03-30T12:07:32.923Z,85.90
2023-03-30T12:10:11.512Z,85.80
2023-03-30T12:12:42.857Z,86.40
2023-03-30T12:15:41.461Z,86.60
2023-03-30T12:18:58.677Z,86.60
2023-03-30T12:21:41.807Z,86.80
2023-03-30T12:24:45.412Z,87.20
2023-03-30T12:27:15.166Z,87.30
2023-03-30T12:32:40.482Z,87.90
2023-03-30T12:35:46.809Z,88.10
2023-03-30T12:38:30.038Z,88.00
2023-03-30T12:41:17.546Z,88.10
2023-03-30T12:44:07.439Z,88.10
2023-03-30T12:46:51.033Z,88.30
2023-03-30T12:49:34.399Z,88.10
2023-03-30T12:52:38.573Z,88.40
2023-03-30T12:55:28.763Z,88.30
2023-03-30T12:58:50.048Z,88.30
2023-03-30T13:01:43.512Z,88.80
2023-03-30T13:04:27.977Z,88.90
2023-03-30T13:07:26.494Z,89.00
2023-03-30T13:10:06.522Z,89.20
2023-03-30T13:12:43.903Z,89.70
2023-03-30T13:15:42.432Z,89.70
2023-03-30T13:18:13.378Z,89.80
2023-03-30T13:20:57.795Z,90.00
2023-03-30T13:23:40.729Z,90.10
2023-03-30T13:26:34.960Z,90.00
2023-03-30T13:29:16.211Z,90.10
2023-03-30T13:32:10.833Z,90.10
2023-03-30T13:35:26.355Z,90.10
2023-03-30T13:38:50.554Z,90.10
2023-03-30T13:41:51.217Z,90.20
2023-03-30T13:44:42.849Z,90.20
2023-03-30T13:47:50.313Z,90.40
2023-03-30T13:50:29.055Z,90.40
2023-03-30T13:53:02.848Z,90.60
2023-03-30T13:55:45.635Z,90.70
2023-03-30T13:58:24.735Z,90.70
2023-03-30T14:01:19.210Z,90.80
2023-03-30T14:04:07.520Z,90.90
2023-03-30T14:06:45.209Z,91.00
2023-03-30T14:09:22.559Z,90.60
2023-03-30T14:12:01.689Z,91.20
2023-03-30T14:14:47.850Z,91.20
2023-03-30T14:17:24.351Z,91.20
2023-03-30T14:19:53.495Z,91.20
2023-03-30T14:22:29.731Z,91.20
2023-03-30T14:25:22.716Z,91.10
2023-03-30T14:27:52.350Z,91.10
2023-03-30T14:30:25.664Z,91.20
2023-03-30T14:33:14.942Z,91.20
2023-03-30T14:35:54.071Z,91.10
2023-03-30T14:38:42.448Z,91.40
2023-03-30T14:41:28.417Z,91.60
2023-03-30T14:44:04.750Z,91.60
2023-03-30T14:47:06.537Z,91.70
2023-03-30T14:49:38.157Z,91.80
2023-03-30T14:52:18.230Z,91.90
2023-03-30T14:55:05.189Z,91.90
2023-03-30T14:57:43.698Z,92.20
2023-03-30T15:00:23.373Z,92.00
2023-03-30T15:03:01.060Z,91.90
2023-03-30T15:05:43.649Z,91.90
2023-03-30T15:08:35.737Z,91.80
2023-03-30T15:11:13.801Z,91.70
2023-03-30T15:13:53.663Z,91.70
2023-03-30T15:16:29.431Z,91.60
2023-03-30T15:19:34.963Z,91.50
2023-03-30T15:22:31.050Z,91.50
2023-03-30T15:25:08.809Z,91.50
2023-03-30T15:27:43.869Z,91.50
2023-03-30T15:30:53.082Z,91.60
2023-03-30T15:33:45.601Z,91.50
2023-03-30T15:36:40.320Z,91.60
2023-03-30T15:39:34.706Z,91.50
2023-03-30T15:42:08.017Z,91.60
2023-03-30T15:44:41.470Z,91.50
2023-03-30T15:47:20.911Z,91.70
2023-03-30T15:49:53.414Z,91.70
2023-03-30T15:52:33.384Z,91.80
2023-03-30T15:55:28.046Z,91.60
2023-03-30T15:57:57.839Z,91.70
2023-03-30T16:00:35.426Z,91.80
2023-03-30T16:03:08.794Z,91.60
2023-03-30T16:05:38.117Z,91.70
2023-03-30T16:08:07.584Z,91.50
2023-03-30T16:10:38.988Z,91.50
2023-03-30T16:13:12.405Z,91.50
2023-03-30T16:15:41.669Z,91.50
2023-03-30T16:18:13.393Z,91.40
2023-03-30T16:20:43.846Z,91.40
2023-03-30T16:23:13.557Z,91.50
2023-03-30T16:25:45.359Z,91.50
2023-03-30T16:28:19.767Z,91.30
2023-03-30T16:30:53.034Z,91.40
2023-03-30T16:33:22.688Z,91.40
2023-03-30T16:35:52.080Z,91.50
2023-03-30T16:38:21.448Z,91.50
2023-03-30T16:40:56.272Z,91.50
2023-03-30T16:43:26.932Z,91.60
2023-03-30T16:45:56.374Z,91.40
2023-03-30T16:48:25.566Z,91.30
2023-03-30T16:50:57.992Z,91.40
2023-03-30T16:53:27.334Z,91.50
2023-03-30T16:55:56.941Z,91.30
2023-03-30T16:58:26.315Z,91.40
2023-03-30T17:01:04.077Z,91.30
2023-03-30T17:03:33.875Z,91.40
2023-03-30T17:06:05.061Z,91.50
2023-03-30T17:08:34.728Z,91.40
2023-03-30T17:11:05.899Z,91.40
2023-03-30T17:13:35.893Z,91.60
2023-03-30T17:16:05.065Z,91.50
2023-03-30T17:18:34.359Z,91.50
2023-03-30T17:21:04.615Z,91.60
2023-03-30T17:23:35.235Z,91.50
2023-03-30T17:26:05.049Z,91.50
2023-03-30T17:28:39.323Z,91.80
2023-03-30T17:31:17.468Z,91.70
2023-03-30T17:33:48.895Z,91.70
2023-03-30T17:36:23.160Z,91.70
2023-03-30T17:38:54.238Z,91.80
2023-03-30T17:41:23.764Z,92.30
2023-03-30T17:43:52.919Z,92.00
2023-03-30T17:46:22.473Z,92.50
2023-03-30T17:48:54.305Z,92.10
2023-03-30T17:51:23.452Z,92.20
2023-03-30T17:53:52.644Z,92.20
2023-03-30T17:56:21.801Z,92.40
2023-03-30T17:58:51.024Z,92.60
2023-03-30T18:01:20.195Z,92.50
2023-03-30T18:03:49.385Z,92.60
2023-03-30T18:06:19.192Z,92.80
2023-03-30T18:08:49.564Z,93.10
2023-03-30T18:11:18.718Z,93.30
2023-03-30T18:13:47.894Z,93.50
2023-03-30T18:16:18.910Z,93.70
2023-03-30T18:18:48.223Z,93.90
2023-03-30T18:21:17.397Z,94.10
2023-03-30T18:23:46.572Z,94.30
2023-03-30T18:26:15.820Z,94.40
2023-03-30T18:28:47.334Z,94.50
2023-03-30T18:31:16.578Z,94.50
2023-03-30T18:33:46.085Z,94.50
2023-03-30T18:36:16.309Z,94.60
2023-03-30T18:38:45.798Z,94.80
2023-03-30T18:41:15.552Z,94.80
2023-03-30T18:43:44.666Z,95.10
2023-03-30T18:46:14.765Z,95.10
2023-03-30T18:48:44.089Z,95.40
2023-03-30T18:51:14.211Z,95.60
2023-03-30T18:53:43.433Z,95.60
2023-03-30T18:56:14.672Z,95.70
2023-03-30T18:58:44.130Z,95.90
2023-03-30T19:01:14.171Z,95.90
2023-03-30T19:03:45.796Z,96.00
2023-03-30T19:06:22.864Z,96.20
2023-03-30T19:08:52.418Z,96.20
2023-03-30T19:11:27.753Z,96.10
2023-03-30T19:13:57.062Z,96.20
2023-03-30T19:16:26.383Z,96.20
2023-03-30T19:18:55.566Z,96.20
2023-03-30T19:21:25.011Z,96.40
2023-03-30T19:23:54.148Z,96.40
2023-03-30T19:26:24.581Z,96.60
2023-03-30T19:28:56.959Z,96.60
2023-03-30T19:31:26.479Z,96.90
2023-03-30T19:33:56.687Z,96.90
2023-03-30T19:36:26.054Z,97.10
2023-03-30T19:38:55.532Z,97.20
2023-03-30T19:41:24.822Z,97.30
2023-03-30T19:43:54.064Z,97.30
2023-03-30T19:46:23.328Z,97.30
2023-03-30T19:48:52.672Z,97.30
2023-03-30T19:51:22.504Z,97.30
2023-03-30T19:53:51.762Z,97.20
2023-03-30T19:56:20.898Z,97.10
2023-03-30T19:58:50.126Z,97.20
2023-03-30T20:01:20.610Z,97.10
2023-03-30T20:03:49.879Z,97.00
2023-03-30T20:06:19.114Z,96.90
2023-03-30T20:08:48.310Z,96.80
2023-03-30T20:11:17.590Z,96.70
2023-03-30T20:13:46.994Z,96.80
2023-03-30T20:16:24.620Z,96.60
2023-03-30T20:18:55.561Z,96.40
2023-03-30T20:21:27.788Z,96.30
2023-03-30T20:23:59.536Z,96.20
2023-03-30T20:26:30.308Z,96.10
2023-03-30T20:29:00.052Z,96.50
2023-03-30T20:31:30.989Z,96.20
2023-03-30T20:34:01.291Z,96.20
2023-03-30T20:36:30.642Z,96.20
2023-03-30T20:39:00.783Z,96.20
2023-03-30T20:41:39.072Z,95.90
2023-03-30T20:44:15.253Z,95.80
2023-03-30T20:46:44.498Z,95.70
2023-03-30T20:49:14.993Z,95.60
2023-03-30T20:51:46.028Z,95.60
2023-03-30T20:54:15.334Z,95.60
2023-03-30T20:56:44.732Z,95.80
2023-03-30T20:59:14.132Z,95.70
2023-03-30T21:01:44.508Z,95.80
2023-03-30T21:04:14.010Z,95.80
2023-03-30T21:06:43.775Z,95.70
2023-03-30T21:09:13.274Z,95.70
2023-03-30T21:11:42.511Z,95.70
2023-03-30T21:14:14.630Z,95.60
2023-03-30T21:16:43.929Z,95.70
2023-03-30T21:19:14.206Z,95.70
2023-03-30T21:21:43.384Z,95.90
2023-03-30T21:24:14.401Z,96.00
2023-03-30T21:26:43.577Z,96.10
2023-03-30T21:29:12.832Z,96.20
2023-03-30T21:31:42.602Z,96.20
2023-03-30T21:34:12.748Z,96.20
2023-03-30T21:36:42.046Z,96.20
2023-03-30T21:39:11.384Z,96.30
2023-03-30T21:41:40.681Z,96.30
2023-03-30T21:44:09.947Z,96.30
2023-03-30T21:46:39.122Z,96.20
2023-03-30T21:49:08.284Z,96.20
2023-03-30T21:51:37.505Z,96.20
2023-03-30T21:54:06.938Z,96.20
2023-03-30T21:56:36.244Z,96.20
2023-03-30T21:59:05.499Z,96.20
2023-03-30T22:01:34.760Z,96.20
2023-03-30T22:04:06.176Z,96.10
2023-03-30T22:06:36.449Z,96.20
2023-03-30T22:09:05.797Z,96.20
2023-03-30T22:11:34.930Z,96.20
2023-03-30T22:14:04.079Z,96.10
2023-03-30T22:16:35.964Z,96.20
2023-03-30T22:19:05.954Z,96.10
2023-03-30T22:21:35.578Z,96.20
2023-03-30T22:24:07.726Z,96.20
2023-03-30T22:26:37.412Z,96.30
2023-03-30T22:29:07.506Z,96.30
2023-03-30T22:31:36.938Z,96.40
2023-03-30T22:34:06.635Z,96.40
2023-03-30T22:36:36.131Z,96.50
2023-03-30T22:39:05.479Z,96.50
2023-03-30T22:41:34.666Z,96.40
2023-03-30T22:44:03.831Z,96.40
2023-03-30T22:46:33.111Z,96.60
2023-03-30T22:49:02.995Z,96.70
2023-03-30T22:51:35.164Z,97.10
2023-03-30T22:54:06.126Z,97.10
2023-03-30T22:56:35.406Z,97.30
2023-03-30T22:59:04.606Z,97.30
2023-03-30T23:01:34.061Z,97.50
2023-03-30T23:04:04.413Z,97.60
2023-03-30T23:06:37.166Z,97.90
2023-03-30T23:09:07.789Z,98.00
2023-03-30T23:11:37.972Z,98.00
2023-03-30T23:14:07.175Z,98.10
2023-03-30T23:16:38.427Z,98.20
2023-03-30T23:19:09.055Z,98.20
2023-03-30T23:21:38.312Z,98.10
2023-03-30T23:24:12.248Z,98.10
2023-03-30T23:26:41.536Z,98.20
2023-03-30T23:29:10.766Z,98.20
2023-03-30T23:31:40.173Z,98.20
2023-03-30T23:34:12.745Z,98.20
2023-03-30T23:36:41.912Z,98.30
2023-03-30T23:39:11.431Z,98.40
2023-03-30T23:41:40.592Z,98.40
2023-03-30T23:44:09.923Z,98.20
2023-03-30T23:46:40.146Z,98.30
2023-03-30T23:49:09.360Z,98.50
2023-03-30T23:51:38.563Z,98.50
2023-03-30T23:54:08.528Z,98.40
2023-03-30T23:56:42.921Z,98.40
2023-03-30T23:59:12.825Z,98.50
